Balt Flot 15 — UBPZ — position and weather

sailwx.info

Track history (hours):
 
Tides and Currents Weather Stations Pressure Air Temp Water Temp Dewpoint Dewpoint Depression Visibility Wind Speed Wind Dir Waves Ship Positions

Balt Flot 15

Last reported at 2018-Apr-22 20:24 UTC. Time now 2018-Apr-23 07:34 UTC.
Position N 60°02' E 029°15'.

Length 141 m; draft 3.5 m.

Type: Tanker. MMSI: 273393370.

Date/timePositionNaut miles runAvg speedWind from/ knotsBaromVisibWave heightAir tempDewpointWater temp
2018-Apr-22 20:24N 60°02' E 029°15'510.1
2018-Apr-22 19:52N 60°02' E 029°04'510.0
2018-Apr-22 19:24N 60°02' E 028°55'4 9.8
2018-Apr-22 19:00N 60°02' E 028°47'5 9.8
2018-Apr-22 18:30N 60°02' E 028°37'5 9.8
2018-Apr-22 18:00N 60°03' E 028°28'5 9.4
2018-Apr-22 17:30N 60°05' E 028°19'5 9.7
2018-Apr-22 17:01N 60°07' E 028°11'5 9.9
2018-Apr-22 16:30N 60°09' E 028°01'510.0
2018-Apr-22 16:01N 60°10' E 027°51'5 9.3
2018-Apr-22 15:30N 60°09' E 027°42'510.1
2018-Apr-22 15:00N 60°06' E 027°33'510.1
2018-Apr-22 14:30N 60°04' E 027°25'510.3
2018-Apr-22 14:00N 60°01' E 027°16'510.2
2018-Apr-22 13:30N 59°59' E 027°07'5 9.3
2018-Apr-22 13:01N 59°58' E 026°58'510.0
2018-Apr-22 12:30N 59°59' E 026°48'5 9.8
2018-Apr-22 12:01N 59°59' E 026°38'5 9.8
2018-Apr-22 11:31N 59°57' E 026°29'510.1
2018-Apr-22 11:00N 59°52' E 026°30'510.4
2018-Apr-22 10:31N 59°47' E 026°32'5 9.1
2018-Apr-22 10:00N 59°44' E 026°39'510.1
2018-Apr-22 09:30N 59°42' E 026°48'810.1
2018-Apr-22 08:41N 59°38' E 027°02'210.2
2018-Apr-22 08:30N 59°37' E 027°06'810.2
2018-Apr-22 07:40N 59°33' E 027°21'210.1
2018-Apr-22 07:30N 59°33' E 027°24'510.2
2018-Apr-22 06:59N 59°30' E 027°33'7 9.2
2018-Apr-22 06:11N 59°26' E 027°44'1 0.0
2018-Apr-21 15:25N 59°25' E 027°44'2 2.3
2018-Apr-21 14:37N 59°27' E 027°43'1 8.5
2018-Apr-21 14:30N 59°28' E 027°42'1 0.6
2018-Apr-21 13:02N 59°29' E 027°41'0 0.0
2018-Apr-21 12:53N 59°29' E 027°41'0 0.0
2018-Apr-21 12:30N 59°29' E 027°41'0 0.2
2018-Apr-21 11:59N 59°29' E 027°41'4 8.7
2018-Apr-21 11:29N 59°30' E 027°33'28 9.7
2018-Apr-21 08:35N 59°43' E 026°43'1 7.7
2018-Apr-21 08:30N 59°43' E 026°42'5 9.7
2018-Apr-21 07:59N 59°45' E 026°33'5 9.6
2018-Apr-21 07:30N 59°50' E 026°31'5 9.6
2018-Apr-21 07:00N 59°55' E 026°29'5 9.3
2018-Apr-21 06:30N 59°59' E 026°29'4 7.1
2018-Apr-21 06:00N 60°01' E 026°35'4 8.8
2018-Apr-21 05:30N 60°01' E 026°44'5 9.1
2018-Apr-21 05:00N 59°60' E 026°53'5 8.9
2018-Apr-21 04:30N 59°59' E 027°02'4 8.6
2018-Apr-21 04:00N 60°01' E 027°09'5 9.2
2018-Apr-21 03:30N 60°03' E 027°17'5 9.5
2018-Apr-21 03:00N 60°06' E 027°25'5 9.6
2018-Apr-21 02:30N 60°08' E 027°33'5 9.6
2018-Apr-21 02:00N 60°11' E 027°42'4 8.8
2018-Apr-21 01:30N 60°12' E 027°50'5 9.7
2018-Apr-21 01:00N 60°10' E 027°60'5 9.7
2018-Apr-21 00:30N 60°09' E 028°09'5 9.1
2018-Apr-21 00:00N 60°08' E 028°18'5 9.4
2018-Apr-20 23:30N 60°05' E 028°26'4 8.7
2018-Apr-20 23:01N 60°03' E 028°34'5 9.5
2018-Apr-20 22:30N 60°03' E 028°43'37 9.4
2018-Apr-20 18:34N 59°56' E 029°56'112.2
2018-Apr-20 18:30N 59°56' E 029°57'5 8.9
2018-Apr-20 17:57N 59°54' E 030°07'2 5.0
2018-Apr-20 17:30N 59°53' E 030°11'0 0.2
2018-Apr-20 16:48N 59°53' E 030°11'0 0.0
2018-Apr-20 16:30N 59°53' E 030°11'0 0.0
2018-Apr-20 15:55N 59°53' E 030°11'0 0.0
2018-Apr-20 15:28N 59°53' E 030°11'0 0.0
2018-Apr-20 14:51N 59°53' E 030°11'0 0.0
2018-Apr-20 14:29N 59°53' E 030°11'0 0.0
2018-Apr-20 13:58N 59°53' E 030°11'0 0.0
2018-Apr-20 13:27N 59°53' E 030°11'0 0.0
2018-Apr-20 12:51N 59°53' E 030°11'0 0.0
2018-Apr-20 11:05N 59°53' E 030°11'0 0.0
2018-Apr-20 10:59N 59°53' E 030°11'0 0.0
2018-Apr-20 10:27N 59°53' E 030°11'0 0.0
2018-Apr-20 09:16N 59°53' E 030°11'0 0.0
2018-Apr-20 07:01N 59°53' E 030°11'0 0.0
2018-Apr-20 06:43N 59°53' E 030°11'0 0.0
2018-Apr-20 06:28N 59°53' E 030°11'0 0.0
2018-Apr-20 05:55N 59°53' E 030°11'0 0.0
2018-Apr-20 05:27N 59°53' E 030°11'0 0.0
2018-Apr-20 03:06N 59°53' E 030°11'0 0.0
2018-Apr-20 01:15N 59°53' E 030°11'0 0.0
2018-Apr-20 00:39N 59°53' E 030°11'0 0.0
2018-Apr-20 00:30N 59°53' E 030°11'0 0.0
2018-Apr-19 23:53N 59°53' E 030°11'0 0.0
2018-Apr-19 23:24N 59°53' E 030°11'0 0.0
2018-Apr-19 22:51N 59°53' E 030°11'0 0.0
2018-Apr-19 22:30N 59°53' E 030°11'0 0.0
2018-Apr-19 21:58N 59°53' E 030°11'0 0.0
2018-Apr-19 21:29N 59°53' E 030°11'0 0.0
2018-Apr-19 17:51N 59°53' E 030°11'0 0.0
2018-Apr-19 16:47N 59°53' E 030°11'0 0.0
2018-Apr-19 16:22N 59°53' E 030°11'0 0.1
2018-Apr-19 16:00N 59°53' E 030°11'3 4.9
2018-Apr-19 15:24N 59°54' E 030°05'4 8.9
2018-Apr-19 14:59N 59°56' E 029°58'5 9.7
2018-Apr-19 14:29N 59°57' E 029°49'5 9.9
2018-Apr-19 13:56N 59°60' E 029°40'410.1
2018-Apr-19 13:30N 60°01' E 029°32'14 2.5
2018-Apr-19 07:49N 60°02' E 029°03'410.0
2018-Apr-19 07:26N 60°02' E 028°56'410.1
2018-Apr-19 07:00N 60°02' E 028°47'510.2
2018-Apr-19 06:30N 60°02' E 028°37'510.0
2018-Apr-19 06:00N 60°03' E 028°27'5 9.4
2018-Apr-19 05:30N 60°06' E 028°19'5 9.5
2018-Apr-19 05:00N 60°08' E 028°11'510.0
2018-Apr-19 04:30N 60°09' E 028°01'5 9.9
2018-Apr-19 04:01N 60°10' E 027°51'4 9.0
2018-Apr-19 03:31N 60°10' E 027°43'510.2
2018-Apr-19 03:00N 60°07' E 027°34'510.3
2018-Apr-19 02:30N 60°04' E 027°25'510.4
2018-Apr-19 02:00N 60°02' E 027°16'510.2
2018-Apr-19 01:30N 59°59' E 027°07'5 9.7
2018-Apr-19 01:00N 59°58' E 026°58'510.0
2018-Apr-19 00:30N 59°59' E 026°48'5 9.9
2018-Apr-19 00:00N 59°59' E 026°38'5 9.7
2018-Apr-18 23:31N 59°58' E 026°29'5 9.7
2018-Apr-18 23:00N 59°53' E 026°30'510.1
2018-Apr-18 22:30N 59°48' E 026°32'4 8.8
2018-Apr-18 22:00N 59°44' E 026°38'5 9.6
2018-Apr-18 21:30N 59°42' E 026°46'6 9.7
2018-Apr-18 20:56N 59°40' E 026°56'4 9.7
2018-Apr-18 20:30N 59°38' E 027°03'5 9.8
2018-Apr-18 20:00N 59°36' E 027°12'17 0.9
2018-Apr-18 00:01N 59°43' E 026°41'1 9.7
2018-Apr-17 23:53N 59°44' E 026°39'4 9.5
2018-Apr-17 23:31N 59°46' E 026°33'5 9.5
2018-Apr-17 23:00N 59°50' E 026°31'5 9.6
2018-Apr-17 22:30N 59°55' E 026°29'5 9.4
2018-Apr-17 22:00N 59°60' E 026°29'4 7.8
2018-Apr-17 21:30N 60°02' E 026°35'5 9.5
2018-Apr-17 21:00N 60°01' E 026°45'5 9.5
2018-Apr-17 20:30N 60°00' E 026°54'5 9.4
2018-Apr-17 20:00N 59°59' E 027°03'5 9.6
2018-Apr-17 19:31N 60°02' E 027°12'5 9.6
2018-Apr-17 19:00N 60°04' E 027°20'5 9.4
2018-Apr-17 18:30N 60°07' E 027°28'5 9.6
2018-Apr-17 18:00N 60°09' E 027°36'5 9.6
2018-Apr-17 17:30N 60°12' E 027°44'4 9.0
2018-Apr-17 17:00N 60°11' E 027°53'5 9.7
2018-Apr-17 16:30N 60°10' E 028°03'5 9.7
2018-Apr-17 16:00N 60°09' E 028°12'5 9.2
2018-Apr-17 15:30N 60°06' E 028°20'5 9.6
2018-Apr-17 15:00N 60°04' E 028°28'5 9.5
2018-Apr-17 14:30N 60°03' E 028°37'5 9.5
2018-Apr-17 14:00N 60°03' E 028°47'5 9.5
2018-Apr-17 13:29N 60°03' E 028°57'30 9.4
2018-Apr-17 10:19N 59°56' E 029°55'3 9.5
2018-Apr-17 10:00N 59°55' E 030°01'4 8.8
2018-Apr-17 09:30N 59°54' E 030°09'1 1.6
2018-Apr-17 08:46N 59°53' E 030°11'0 0.0
2018-Apr-17 08:17N 59°53' E 030°11'0 0.0
2018-Apr-17 07:58N 59°53' E 030°11'0 0.0
2018-Apr-17 07:30N 59°53' E 030°11'0 0.0
2018-Apr-17 00:34N 59°53' E 030°11'0 0.0
2018-Apr-17 00:30N 59°53' E 030°11'0 0.0
2018-Apr-17 00:00N 59°53' E 030°11'0 0.0
2018-Apr-16 23:30N 59°53' E 030°11'0 0.0
2018-Apr-16 23:00N 59°53' E 030°11'0 0.0
2018-Apr-16 22:30N 59°53' E 030°11'0 0.0
2018-Apr-16 22:00N 59°53' E 030°11'0 0.0
2018-Apr-16 21:30N 59°53' E 030°11'0 0.0
2018-Apr-16 21:00N 59°53' E 030°11'0 0.0
2018-Apr-16 20:28N 59°53' E 030°11'0 0.0
2018-Apr-16 20:00N 59°53' E 030°11'0 0.0
2018-Apr-16 19:30N 59°53' E 030°11'0 0.0
2018-Apr-16 19:00N 59°53' E 030°11'0 0.0
2018-Apr-16 18:30N 59°53' E 030°11'0 0.0
2018-Apr-16 18:00N 59°53' E 030°11'0 0.0
2018-Apr-16 17:30N 59°53' E 030°11'0 0.0
2018-Apr-16 17:00N 59°53' E 030°11'0 0.0
2018-Apr-16 16:30N 59°53' E 030°11'0 0.0
2018-Apr-16 16:00N 59°53' E 030°11'0 0.0
2018-Apr-16 15:30N 59°53' E 030°11'0 0.0
2018-Apr-16 15:00N 59°53' E 030°11'0 0.0
2018-Apr-16 14:30N 59°53' E 030°11'0 0.0
2018-Apr-16 13:58N 59°53' E 030°11'0 0.0
2018-Apr-16 13:30N 59°53' E 030°11'0 0.0
2018-Apr-16 13:01N 59°53' E 030°11'1 1.1
2018-Apr-16 12:30N 59°53' E 030°10'0 0.1
2018-Apr-16 08:33N 59°53' E 030°10'0 0.0
2018-Apr-16 08:30N 59°53' E 030°10'0 0.0
2018-Apr-16 07:59N 59°53' E 030°10'0 0.0
2018-Apr-16 07:30N 59°53' E 030°10'0 0.0
2018-Apr-16 07:00N 59°53' E 030°10'2 3.5
2018-Apr-16 06:30N 59°54' E 030°07'4 8.4
2018-Apr-16 06:00N 59°55' E 029°59'4 8.8
2018-Apr-16 05:30N 59°57' E 029°51'15 8.8
2018-Apr-16 03:51N 60°01' E 029°23'2 7.1
2018-Apr-16 03:30N 60°01' E 029°19'0 0.0
2018-Apr-15 07:57N 60°01' E 029°19'0 0.0
2018-Apr-15 07:29N 60°01' E 029°19'0 0.0
2018-Apr-15 06:54N 60°01' E 029°19'0 0.0
2018-Apr-15 06:29N 60°01' E 029°19'0 0.0
2018-Apr-15 05:58N 60°01' E 029°19'0 0.0
2018-Apr-15 05:25N 60°01' E 029°19'0 0.0
2018-Apr-14 17:56N 60°01' E 029°19'2 4.0
2018-Apr-14 17:22N 60°01' E 029°14'4 9.9
2018-Apr-14 17:00N 60°02' E 029°07'510.0
2018-Apr-14 16:31N 60°02' E 028°57'510.3
2018-Apr-14 16:00N 60°02' E 028°47'510.0
2018-Apr-14 15:31N 60°02' E 028°37'5 9.3
2018-Apr-14 15:00N 60°03' E 028°28'4 8.9
2018-Apr-14 14:30N 60°05' E 028°20'5 9.1
2018-Apr-14 14:00N 60°08' E 028°12'4 8.6
2018-Apr-14 13:31N 60°09' E 028°04'510.2
2018-Apr-14 13:01N 60°10' E 027°54'5 9.0
2018-Apr-14 12:30N 60°10' E 027°45'510.1
2018-Apr-14 12:00N 60°08' E 027°36'510.0
2018-Apr-14 11:31N 60°05' E 027°28'510.2
2018-Apr-14 11:00N 60°02' E 027°19'510.3
2018-Apr-14 10:30N 59°60' E 027°10'5 9.9
2018-Apr-14 10:01N 59°58' E 027°01'510.3
2018-Apr-14 09:30N 59°59' E 026°51'510.2
2018-Apr-14 09:00N 59°59' E 026°41'510.0
2018-Apr-14 08:31N 59°58' E 026°31'510.2
2018-Apr-14 08:01N 59°57' E 026°21'610.2
2018-Apr-14 07:28N 59°55' E 026°11'2310.2
2018-Apr-14 05:11N 59°50' E 025°26'410.2
2018-Apr-14 04:49N 59°49' E 025°18'310.3
2018-Apr-14 04:30N 59°49' E 025°12'510.2
2018-Apr-14 04:00N 59°48' E 025°02'510.0
2018-Apr-14 03:31N 59°46' E 024°53'510.0
2018-Apr-14 03:01N 59°45' E 024°43'510.1
2018-Apr-14 02:30N 59°44' E 024°33'510.1
2018-Apr-14 02:00N 59°43' E 024°23'6 9.9
2018-Apr-14 01:26N 59°41' E 024°13'4 9.8
2018-Apr-14 01:00N 59°40' E 024°05'6 9.9
2018-Apr-14 00:25N 59°38' E 023°54'510.1
2018-Apr-13 23:58N 59°37' E 023°45'510.4
2018-Apr-13 23:30N 59°35' E 023°36'510.5
2018-Apr-13 23:00N 59°34' E 023°26'510.3
2018-Apr-13 22:30N 59°32' E 023°17'510.1
2018-Apr-13 22:00N 59°30' E 023°07'510.1
2018-Apr-13 21:30N 59°29' E 022°58'510.1
2018-Apr-13 21:00N 59°27' E 022°48'24 9.5
2018-Apr-13 18:26N 59°14' E 022°09'4 9.2
2018-Apr-13 18:00N 59°11' E 022°03'5 9.3
2018-Apr-13 17:30N 59°08' E 021°56'5 9.3
2018-Apr-13 17:00N 59°05' E 021°49'  
Track history (hours):
 
Tides and Currents Weather Stations Pressure Air Temp Water Temp Dewpoint Dewpoint Depression Visibility Wind Speed Wind Dir Waves Ship Positions

Balt Flot 15

Last reported at 2018-Apr-22 20:24 UTC. Time now 2018-Apr-23 07:34 UTC.
Position N 60°02' E 029°15'.

Length 141 m; draft 3.5 m.

Type: Tanker. MMSI: 273393370.

Date/timePositionNaut miles runAvg speedWind from/ knotsBaromVisibWave heightAir tempDewpointWater temp
2018-Apr-22 20:24N 60°02' E 029°15'510.1
2018-Apr-22 19:52N 60°02' E 029°04'510.0
2018-Apr-22 19:24N 60°02' E 028°55'4 9.8
2018-Apr-22 19:00N 60°02' E 028°47'5 9.8
2018-Apr-22 18:30N 60°02' E 028°37'5 9.8
2018-Apr-22 18:00N 60°03' E 028°28'5 9.4
2018-Apr-22 17:30N 60°05' E 028°19'5 9.7
2018-Apr-22 17:01N 60°07' E 028°11'5 9.9
2018-Apr-22 16:30N 60°09' E 028°01'510.0
2018-Apr-22 16:01N 60°10' E 027°51'5 9.3
2018-Apr-22 15:30N 60°09' E 027°42'510.1
2018-Apr-22 15:00N 60°06' E 027°33'510.1
2018-Apr-22 14:30N 60°04' E 027°25'510.3
2018-Apr-22 14:00N 60°01' E 027°16'510.2
2018-Apr-22 13:30N 59°59' E 027°07'5 9.3
2018-Apr-22 13:01N 59°58' E 026°58'510.0
2018-Apr-22 12:30N 59°59' E 026°48'5 9.8
2018-Apr-22 12:01N 59°59' E 026°38'5 9.8
2018-Apr-22 11:31N 59°57' E 026°29'510.1
2018-Apr-22 11:00N 59°52' E 026°30'510.4
2018-Apr-22 10:31N 59°47' E 026°32'5 9.1
2018-Apr-22 10:00N 59°44' E 026°39'510.1
2018-Apr-22 09:30N 59°42' E 026°48'810.1
2018-Apr-22 08:41N 59°38' E 027°02'210.2
2018-Apr-22 08:30N 59°37' E 027°06'810.2
2018-Apr-22 07:40N 59°33' E 027°21'210.1
2018-Apr-22 07:30N 59°33' E 027°24'510.2
2018-Apr-22 06:59N 59°30' E 027°33'7 9.2
2018-Apr-22 06:11N 59°26' E 027°44'1 0.0
2018-Apr-21 15:25N 59°25' E 027°44'2 2.3
2018-Apr-21 14:37N 59°27' E 027°43'1 8.5
2018-Apr-21 14:30N 59°28' E 027°42'1 0.6
2018-Apr-21 13:02N 59°29' E 027°41'0 0.0
2018-Apr-21 12:53N 59°29' E 027°41'0 0.0
2018-Apr-21 12:30N 59°29' E 027°41'0 0.2
2018-Apr-21 11:59N 59°29' E 027°41'4 8.7
2018-Apr-21 11:29N 59°30' E 027°33'28 9.7
2018-Apr-21 08:35N 59°43' E 026°43'1 7.7
2018-Apr-21 08:30N 59°43' E 026°42'5 9.7
2018-Apr-21 07:59N 59°45' E 026°33'5 9.6
2018-Apr-21 07:30N 59°50' E 026°31'5 9.6
2018-Apr-21 07:00N 59°55' E 026°29'5 9.3
2018-Apr-21 06:30N 59°59' E 026°29'4 7.1
2018-Apr-21 06:00N 60°01' E 026°35'4 8.8
2018-Apr-21 05:30N 60°01' E 026°44'5 9.1
2018-Apr-21 05:00N 59°60' E 026°53'5 8.9
2018-Apr-21 04:30N 59°59' E 027°02'4 8.6
2018-Apr-21 04:00N 60°01' E 027°09'5 9.2
2018-Apr-21 03:30N 60°03' E 027°17'5 9.5
2018-Apr-21 03:00N 60°06' E 027°25'5 9.6
2018-Apr-21 02:30N 60°08' E 027°33'5 9.6
2018-Apr-21 02:00N 60°11' E 027°42'4 8.8
2018-Apr-21 01:30N 60°12' E 027°50'5 9.7
2018-Apr-21 01:00N 60°10' E 027°60'5 9.7
2018-Apr-21 00:30N 60°09' E 028°09'5 9.1
2018-Apr-21 00:00N 60°08' E 028°18'5 9.4
2018-Apr-20 23:30N 60°05' E 028°26'4 8.7
2018-Apr-20 23:01N 60°03' E 028°34'5 9.5
2018-Apr-20 22:30N 60°03' E 028°43'37 9.4
2018-Apr-20 18:34N 59°56' E 029°56'112.2
2018-Apr-20 18:30N 59°56' E 029°57'5 8.9
2018-Apr-20 17:57N 59°54' E 030°07'2 5.0
2018-Apr-20 17:30N 59°53' E 030°11'0 0.2
2018-Apr-20 16:48N 59°53' E 030°11'0 0.0
2018-Apr-20 16:30N 59°53' E 030°11'0 0.0
2018-Apr-20 15:55N 59°53' E 030°11'0 0.0
2018-Apr-20 15:28N 59°53' E 030°11'0 0.0
2018-Apr-20 14:51N 59°53' E 030°11'0 0.0
2018-Apr-20 14:29N 59°53' E 030°11'0 0.0
2018-Apr-20 13:58N 59°53' E 030°11'0 0.0
2018-Apr-20 13:27N 59°53' E 030°11'0 0.0
2018-Apr-20 12:51N 59°53' E 030°11'0 0.0
2018-Apr-20 11:05N 59°53' E 030°11'0 0.0
2018-Apr-20 10:59N 59°53' E 030°11'0 0.0
2018-Apr-20 10:27N 59°53' E 030°11'0 0.0
2018-Apr-20 09:16N 59°53' E 030°11'0 0.0
2018-Apr-20 07:01N 59°53' E 030°11'0 0.0
2018-Apr-20 06:43N 59°53' E 030°11'0 0.0
2018-Apr-20 06:28N 59°53' E 030°11'0 0.0
2018-Apr-20 05:55N 59°53' E 030°11'0 0.0
2018-Apr-20 05:27N 59°53' E 030°11'0 0.0
2018-Apr-20 03:06N 59°53' E 030°11'0 0.0
2018-Apr-20 01:15N 59°53' E 030°11'0 0.0
2018-Apr-20 00:39N 59°53' E 030°11'0 0.0
2018-Apr-20 00:30N 59°53' E 030°11'0 0.0
2018-Apr-19 23:53N 59°53' E 030°11'0 0.0
2018-Apr-19 23:24N 59°53' E 030°11'0 0.0
2018-Apr-19 22:51N 59°53' E 030°11'0 0.0
2018-Apr-19 22:30N 59°53' E 030°11'0 0.0
2018-Apr-19 21:58N 59°53' E 030°11'0 0.0
2018-Apr-19 21:29N 59°53' E 030°11'0 0.0
2018-Apr-19 17:51N 59°53' E 030°11'0 0.0
2018-Apr-19 16:47N 59°53' E 030°11'0 0.0
2018-Apr-19 16:22N 59°53' E 030°11'0 0.1
2018-Apr-19 16:00N 59°53' E 030°11'3 4.9
2018-Apr-19 15:24N 59°54' E 030°05'4 8.9
2018-Apr-19 14:59N 59°56' E 029°58'5 9.7
2018-Apr-19 14:29N 59°57' E 029°49'5 9.9
2018-Apr-19 13:56N 59°60' E 029°40'410.1
2018-Apr-19 13:30N 60°01' E 029°32'14 2.5
2018-Apr-19 07:49N 60°02' E 029°03'410.0
2018-Apr-19 07:26N 60°02' E 028°56'410.1
2018-Apr-19 07:00N 60°02' E 028°47'510.2
2018-Apr-19 06:30N 60°02' E 028°37'510.0
2018-Apr-19 06:00N 60°03' E 028°27'5 9.4
2018-Apr-19 05:30N 60°06' E 028°19'5 9.5
2018-Apr-19 05:00N 60°08' E 028°11'510.0
2018-Apr-19 04:30N 60°09' E 028°01'5 9.9
2018-Apr-19 04:01N 60°10' E 027°51'4 9.0
2018-Apr-19 03:31N 60°10' E 027°43'510.2
2018-Apr-19 03:00N 60°07' E 027°34'510.3
2018-Apr-19 02:30N 60°04' E 027°25'510.4
2018-Apr-19 02:00N 60°02' E 027°16'510.2
2018-Apr-19 01:30N 59°59' E 027°07'5 9.7
2018-Apr-19 01:00N 59°58' E 026°58'510.0
2018-Apr-19 00:30N 59°59' E 026°48'5 9.9
2018-Apr-19 00:00N 59°59' E 026°38'5 9.7
2018-Apr-18 23:31N 59°58' E 026°29'5 9.7
2018-Apr-18 23:00N 59°53' E 026°30'510.1
2018-Apr-18 22:30N 59°48' E 026°32'4 8.8
2018-Apr-18 22:00N 59°44' E 026°38'5 9.6
2018-Apr-18 21:30N 59°42' E 026°46'6 9.7
2018-Apr-18 20:56N 59°40' E 026°56'4 9.7
2018-Apr-18 20:30N 59°38' E 027°03'5 9.8
2018-Apr-18 20:00N 59°36' E 027°12'17 0.9
2018-Apr-18 00:01N 59°43' E 026°41'1 9.7
2018-Apr-17 23:53N 59°44' E 026°39'4 9.5
2018-Apr-17 23:31N 59°46' E 026°33'5 9.5
2018-Apr-17 23:00N 59°50' E 026°31'5 9.6
2018-Apr-17 22:30N 59°55' E 026°29'5 9.4
2018-Apr-17 22:00N 59°60' E 026°29'4 7.8
2018-Apr-17 21:30N 60°02' E 026°35'5 9.5
2018-Apr-17 21:00N 60°01' E 026°45'5 9.5
2018-Apr-17 20:30N 60°00' E 026°54'5 9.4
2018-Apr-17 20:00N 59°59' E 027°03'5 9.6
2018-Apr-17 19:31N 60°02' E 027°12'5 9.6
2018-Apr-17 19:00N 60°04' E 027°20'5 9.4
2018-Apr-17 18:30N 60°07' E 027°28'5 9.6
2018-Apr-17 18:00N 60°09' E 027°36'5 9.6
2018-Apr-17 17:30N 60°12' E 027°44'4 9.0
2018-Apr-17 17:00N 60°11' E 027°53'5 9.7
2018-Apr-17 16:30N 60°10' E 028°03'5 9.7
2018-Apr-17 16:00N 60°09' E 028°12'5 9.2
2018-Apr-17 15:30N 60°06' E 028°20'5 9.6
2018-Apr-17 15:00N 60°04' E 028°28'5 9.5
2018-Apr-17 14:30N 60°03' E 028°37'5 9.5
2018-Apr-17 14:00N 60°03' E 028°47'5 9.5
2018-Apr-17 13:29N 60°03' E 028°57'30 9.4
2018-Apr-17 10:19N 59°56' E 029°55'3 9.5
2018-Apr-17 10:00N 59°55' E 030°01'4 8.8
2018-Apr-17 09:30N 59°54' E 030°09'1 1.6
2018-Apr-17 08:46N 59°53' E 030°11'0 0.0
2018-Apr-17 08:17N 59°53' E 030°11'0 0.0
2018-Apr-17 07:58N 59°53' E 030°11'0 0.0
2018-Apr-17 07:30N 59°53' E 030°11'0 0.0
2018-Apr-17 00:34N 59°53' E 030°11'0 0.0
2018-Apr-17 00:30N 59°53' E 030°11'0 0.0
2018-Apr-17 00:00N 59°53' E 030°11'0 0.0
2018-Apr-16 23:30N 59°53' E 030°11'0 0.0
2018-Apr-16 23:00N 59°53' E 030°11'0 0.0
2018-Apr-16 22:30N 59°53' E 030°11'0 0.0
2018-Apr-16 22:00N 59°53' E 030°11'0 0.0
2018-Apr-16 21:30N 59°53' E 030°11'0 0.0
2018-Apr-16 21:00N 59°53' E 030°11'0 0.0
2018-Apr-16 20:28N 59°53' E 030°11'0 0.0
2018-Apr-16 20:00N 59°53' E 030°11'0 0.0
2018-Apr-16 19:30N 59°53' E 030°11'0 0.0
2018-Apr-16 19:00N 59°53' E 030°11'0 0.0
2018-Apr-16 18:30N 59°53' E 030°11'0 0.0
2018-Apr-16 18:00N 59°53' E 030°11'0 0.0
2018-Apr-16 17:30N 59°53' E 030°11'0 0.0
2018-Apr-16 17:00N 59°53' E 030°11'0 0.0
2018-Apr-16 16:30N 59°53' E 030°11'0 0.0
2018-Apr-16 16:00N 59°53' E 030°11'0 0.0
2018-Apr-16 15:30N 59°53' E 030°11'0 0.0
2018-Apr-16 15:00N 59°53' E 030°11'0 0.0
2018-Apr-16 14:30N 59°53' E 030°11'0 0.0
2018-Apr-16 13:58N 59°53' E 030°11'0 0.0
2018-Apr-16 13:30N 59°53' E 030°11'0 0.0
2018-Apr-16 13:01N 59°53' E 030°11'1 1.1
2018-Apr-16 12:30N 59°53' E 030°10'0 0.1
2018-Apr-16 08:33N 59°53' E 030°10'0 0.0
2018-Apr-16 08:30N 59°53' E 030°10'0 0.0
2018-Apr-16 07:59N 59°53' E 030°10'0 0.0
2018-Apr-16 07:30N 59°53' E 030°10'0 0.0
2018-Apr-16 07:00N 59°53' E 030°10'2 3.5
2018-Apr-16 06:30N 59°54' E 030°07'4 8.4
2018-Apr-16 06:00N 59°55' E 029°59'4 8.8
2018-Apr-16 05:30N 59°57' E 029°51'15 8.8
2018-Apr-16 03:51N 60°01' E 029°23'2 7.1
2018-Apr-16 03:30N 60°01' E 029°19'0 0.0
2018-Apr-15 07:57N 60°01' E 029°19'0 0.0
2018-Apr-15 07:29N 60°01' E 029°19'0 0.0
2018-Apr-15 06:54N 60°01' E 029°19'0 0.0
2018-Apr-15 06:29N 60°01' E 029°19'0 0.0
2018-Apr-15 05:58N 60°01' E 029°19'0 0.0
2018-Apr-15 05:25N 60°01' E 029°19'0 0.0
2018-Apr-14 17:56N 60°01' E 029°19'2 4.0
2018-Apr-14 17:22N 60°01' E 029°14'4 9.9
2018-Apr-14 17:00N 60°02' E 029°07'510.0
2018-Apr-14 16:31N 60°02' E 028°57'510.3
2018-Apr-14 16:00N 60°02' E 028°47'510.0
2018-Apr-14 15:31N 60°02' E 028°37'5 9.3
2018-Apr-14 15:00N 60°03' E 028°28'4 8.9
2018-Apr-14 14:30N 60°05' E 028°20'5 9.1
2018-Apr-14 14:00N 60°08' E 028°12'4 8.6
2018-Apr-14 13:31N 60°09' E 028°04'510.2
2018-Apr-14 13:01N 60°10' E 027°54'5 9.0
2018-Apr-14 12:30N 60°10' E 027°45'510.1
2018-Apr-14 12:00N 60°08' E 027°36'510.0
2018-Apr-14 11:31N 60°05' E 027°28'510.2
2018-Apr-14 11:00N 60°02' E 027°19'510.3
2018-Apr-14 10:30N 59°60' E 027°10'5 9.9
2018-Apr-14 10:01N 59°58' E 027°01'510.3
2018-Apr-14 09:30N 59°59' E 026°51'510.2
2018-Apr-14 09:00N 59°59' E 026°41'510.0
2018-Apr-14 08:31N 59°58' E 026°31'510.2
2018-Apr-14 08:01N 59°57' E 026°21'610.2
2018-Apr-14 07:28N 59°55' E 026°11'2310.2
2018-Apr-14 05:11N 59°50' E 025°26'410.2
2018-Apr-14 04:49N 59°49' E 025°18'310.3
2018-Apr-14 04:30N 59°49' E 025°12'510.2
2018-Apr-14 04:00N 59°48' E 025°02'510.0
2018-Apr-14 03:31N 59°46' E 024°53'510.0
2018-Apr-14 03:01N 59°45' E 024°43'510.1
2018-Apr-14 02:30N 59°44' E 024°33'510.1
2018-Apr-14 02:00N 59°43' E 024°23'6 9.9
2018-Apr-14 01:26N 59°41' E 024°13'4 9.8
2018-Apr-14 01:00N 59°40' E 024°05'6 9.9
2018-Apr-14 00:25N 59°38' E 023°54'510.1
2018-Apr-13 23:58N 59°37' E 023°45'510.4
2018-Apr-13 23:30N 59°35' E 023°36'510.5
2018-Apr-13 23:00N 59°34' E 023°26'510.3
2018-Apr-13 22:30N 59°32' E 023°17'510.1
2018-Apr-13 22:00N 59°30' E 023°07'510.1
2018-Apr-13 21:30N 59°29' E 022°58'510.1
2018-Apr-13 21:00N 59°27' E 022°48'24 9.5
2018-Apr-13 18:26N 59°14' E 022°09'4 9.2
2018-Apr-13 18:00N 59°11' E 022°03'5 9.3
2018-Apr-13 17:30N 59°08' E 021°56'5 9.3
2018-Apr-13 17:00N 59°05' E 021°49'  

Dump ship's entire track history